Terminal Aerodrome Forecast
Issued by NWS Shreveport, LA

Home | Current Version | Previous Version | Text Only | Print | Product List | Glossary On
Versions: 1 2 3 4 5 6 7 8 9 10 11 12
666
FTUS44 KSHV 291720
TAFTXK
TAF
KTXK 291720Z 2918/3018 03009KT P6SM SKC
     FM300000 01005KT P6SM SKC
     FM300600 35003KT P6SM FEW250
     FM301500 33006KT P6SM FEW250=

USA.gov is the U.S. government's official web portal to all federal, state and local government web resources and services.